Time;durP1;ratioP1;P1;durP2;ratioP2;P2;SDS_P1;SDS_P2;PMS_P1;PMS_P2;Temp;Humidity;BMP_temperature;BMP_pressure;BME280_temperature;BME280_humidity;BME280_pressure;Samples;Min_cycle;Max_cycle;Signal;HPM_P1;HPM_P2
2021/07/26 00:02:06;;;;;;;;;;;24.30;64.40;;;;;;4945795;28;20299;-60
2021/07/26 00:04:32;;;;;;;;;;;24.30;64.40;;;;;;4965096;28;19969;-59
2021/07/26 00:06:57;;;;;;;;;;;24.30;64.40;;;;;;4965258;28;19918;-60
2021/07/26 00:09:23;;;;;;;;;;;24.40;64.50;;;;;;4962320;28;19918;-60
2021/07/26 00:11:48;;;;;;;;;;;24.30;64.40;;;;;;4963004;28;19929;-61
2021/07/26 00:14:14;;;;;;;;;;;24.30;64.40;;;;;;4962672;28;20456;-60
2021/07/26 00:16:39;;;;;;;;;;;24.30;64.40;;;;;;4961920;28;21401;-61
2021/07/26 00:19:04;;;;;;;;;;;24.30;64.40;;;;;;4961269;28;19922;-61
2021/07/26 00:21:30;;;;;;;;;;;24.30;64.40;;;;;;4961467;28;19953;-60
2021/07/26 00:23:55;;;;;;;;;;;24.30;64.50;;;;;;4961566;28;20280;-59
2021/07/26 00:26:21;;;;;;;;;;;24.20;64.40;;;;;;4961638;28;19914;-59
2021/07/26 00:28:47;;;;;;;;;;;24.30;64.40;;;;;;4961577;28;20042;-60
2021/07/26 00:31:12;;;;;;;;;;;24.30;64.40;;;;;;4962127;28;19919;-60
2021/07/26 00:34:06;;;;;;;;;;;24.30;64.40;;;;;;4961482;28;19962;-60
2021/07/26 00:36:32;;;;;;;;;;;24.30;64.40;;;;;;4957877;28;19914;-60
2021/07/26 00:38:57;;;;;;;;;;;24.20;64.30;;;;;;4959563;28;19925;-60
2021/07/26 00:41:23;;;;;;;;;;;24.20;64.30;;;;;;4961397;28;19926;-59
2021/07/26 00:43:49;;;;;;;;;;;24.20;64.30;;;;;;4962266;28;20343;-60
2021/07/26 00:46:14;;;;;;;;;;;24.30;64.30;;;;;;4961445;28;19953;-59
2021/07/26 00:48:40;;;;;;;;;;;24.30;64.30;;;;;;4961310;28;19961;-60
2021/07/26 00:51:05;;;;;;;;;;;24.20;64.10;;;;;;4961073;28;19914;-59
2021/07/26 00:53:31;;;;;;;;;;;24.20;64.20;;;;;;4960396;28;20371;-60
2021/07/26 00:55:56;;;;;;;;;;;24.20;64.20;;;;;;4960963;28;19921;-59
2021/07/26 00:58:22;;;;;;;;;;;24.20;64.10;;;;;;4959783;28;19922;-61
2021/07/26 01:00:47;;;;;;;;;;;24.20;64.10;;;;;;4960067;28;20426;-60
2021/07/26 01:03:13;;;;;;;;;;;24.20;64.10;;;;;;4960808;28;19918;-60
2021/07/26 01:05:38;;;;;;;;;;;24.20;64.10;;;;;;4960068;28;19918;-60
2021/07/26 01:08:04;;;;;;;;;;;24.20;64.10;;;;;;4960527;28;20013;-61
2021/07/26 01:10:29;;;;;;;;;;;24.20;64.10;;;;;;4961151;28;20438;-61
2021/07/26 01:12:54;;;;;;;;;;;24.20;64.10;;;;;;4962124;28;19918;-60
2021/07/26 01:15:23;;;;;;;;;;;24.20;64.10;;;;;;4965288;28;19914;-61
2021/07/26 01:18:13;;;;;;;;;;;24.20;64.10;;;;;;4964883;28;19919;-59
2021/07/26 01:20:38;;;;;;;;;;;24.20;64.10;;;;;;4965517;28;19929;-61
2021/07/26 01:23:04;;;;;;;;;;;24.20;64.10;;;;;;4964189;28;19930;-60
2021/07/26 01:25:29;;;;;;;;;;;24.10;64.10;;;;;;4965905;28;19921;-59
2021/07/26 01:27:54;;;;;;;;;;;24.20;64.10;;;;;;4963995;28;20812;-56
2021/07/26 01:30:20;;;;;;;;;;;24.20;64.00;;;;;;4966263;28;19918;-60
2021/07/26 01:32:45;;;;;;;;;;;24.20;64.00;;;;;;4965334;28;19918;-59
2021/07/26 01:35:11;;;;;;;;;;;24.20;63.90;;;;;;4965714;28;19928;-60
2021/07/26 01:37:36;;;;;;;;;;;24.20;63.90;;;;;;4964424;28;20295;-60
2021/07/26 01:40:02;;;;;;;;;;;24.20;63.80;;;;;;4964941;28;19928;-60
2021/07/26 01:42:28;;;;;;;;;;;24.20;63.90;;;;;;4964344;28;20357;-59
2021/07/26 01:44:57;;;;;;;;;;;24.10;63.90;;;;;;4962971;28;19914;-60
2021/07/26 01:47:22;;;;;;;;;;;24.10;63.90;;;;;;4965577;28;19914;-60
2021/07/26 01:49:47;;;;;;;;;;;24.10;63.80;;;;;;4963337;28;20434;-60
2021/07/26 01:52:13;;;;;;;;;;;24.10;63.80;;;;;;4964505;28;19934;-61
2021/07/26 01:54:39;;;;;;;;;;;24.10;63.70;;;;;;4964975;28;19914;-59
2021/07/26 01:57:04;;;;;;;;;;;24.10;63.70;;;;;;4958921;28;20388;-59
2021/07/26 01:59:30;;;;;;;;;;;24.10;63.70;;;;;;4965059;28;19922;-59
2021/07/26 02:01:55;;;;;;;;;;;24.10;63.70;;;;;;4947960;28;19976;-59
2021/07/26 02:04:21;;;;;;;;;;;24.10;63.80;;;;;;4964851;28;19918;-60
2021/07/26 02:06:46;;;;;;;;;;;24.10;63.70;;;;;;4965093;28;19918;-59
2021/07/26 02:09:12;;;;;;;;;;;24.10;63.70;;;;;;4964823;28;19972;-60
2021/07/26 02:11:37;;;;;;;;;;;24.10;63.70;;;;;;4965571;28;19918;-59
2021/07/26 02:14:09;;;;;;;;;;;24.10;63.60;;;;;;4964448;28;19918;-60
2021/07/26 02:16:35;;;;;;;;;;;24.10;63.70;;;;;;4965446;28;20264;-60
2021/07/26 02:19:00;;;;;;;;;;;24.10;63.60;;;;;;4964391;28;19952;-60
2021/07/26 02:21:26;;;;;;;;;;;24.10;63.60;;;;;;4964816;28;19922;-58
2021/07/26 02:23:51;;;;;;;;;;;24.10;63.60;;;;;;4965546;28;19965;-63
2021/07/26 02:26:16;;;;;;;;;;;24.10;63.60;;;;;;4963850;28;19964;-63
2021/07/26 02:28:42;;;;;;;;;;;24.10;63.60;;;;;;4962692;28;19914;-63
2021/07/26 02:31:07;;;;;;;;;;;24.10;63.60;;;;;;4963314;28;20415;-59
2021/07/26 02:33:33;;;;;;;;;;;24.10;63.60;;;;;;4964439;28;19950;-59
2021/07/26 02:35:58;;;;;;;;;;;24.10;63.60;;;;;;4964725;28;19929;-59
2021/07/26 02:38:24;;;;;;;;;;;24.10;63.60;;;;;;4964062;28;19914;-60
2021/07/26 02:40:49;;;;;;;;;;;24.10;63.60;;;;;;4963887;28;20383;-59
2021/07/26 02:43:15;;;;;;;;;;;24.10;64.20;;;;;;4964424;28;19918;-58
2021/07/26 02:45:40;;;;;;;;;;;24.10;63.60;;;;;;4964523;28;20398;-60
2021/07/26 02:48:06;;;;;;;;;;;24.10;63.60;;;;;;4963788;28;19914;-60
2021/07/26 02:50:31;;;;;;;;;;;24.10;63.60;;;;;;4964398;28;19930;-59
2021/07/26 02:52:58;;;;;;;;;;;24.00;63.60;;;;;;4964542;28;19941;-58
2021/07/26 02:55:24;;;;;;;;;;;24.00;63.60;;;;;;4963146;28;19921;-59
2021/07/26 02:57:53;;;;;;;;;;;24.00;63.60;;;;;;4962900;28;19915;-60
2021/07/26 03:00:19;;;;;;;;;;;24.00;63.60;;;;;;4964282;28;19926;-59
2021/07/26 03:02:44;;;;;;;;;;;24.10;63.70;;;;;;4963725;28;19922;-61
2021/07/26 03:05:10;;;;;;;;;;;24.00;63.60;;;;;;4963515;28;19914;-60
2021/07/26 03:07:35;;;;;;;;;;;24.00;63.60;;;;;;4963905;28;19918;-60
2021/07/26 03:10:00;;;;;;;;;;;24.00;63.60;;;;;;4963547;28;19941;-59
2021/07/26 03:12:26;;;;;;;;;;;24.00;63.60;;;;;;4963419;28;19925;-58
2021/07/26 03:14:51;;;;;;;;;;;24.00;63.60;;;;;;4964066;28;19922;-60
2021/07/26 03:17:17;;;;;;;;;;;24.00;63.60;;;;;;4963602;28;20371;-59
2021/07/26 03:19:42;;;;;;;;;;;24.00;63.50;;;;;;4962676;28;19940;-59
2021/07/26 03:22:30;;;;;;;;;;;24.00;63.50;;;;;;4963668;28;19922;-59
2021/07/26 03:24:55;;;;;;;;;;;24.00;63.40;;;;;;4962056;28;19925;-61
2021/07/26 03:27:21;;;;;;;;;;;24.00;63.40;;;;;;4963309;28;19922;-59
2021/07/26 03:29:46;;;;;;;;;;;24.00;63.40;;;;;;4963019;28;19914;-59
2021/07/26 03:32:12;;;;;;;;;;;24.00;63.40;;;;;;4962499;28;19969;-59
2021/07/26 03:34:37;;;;;;;;;;;24.00;63.40;;;;;;4962562;28;20346;-59
2021/07/26 03:37:03;;;;;;;;;;;24.00;63.40;;;;;;4962575;28;19914;-60
2021/07/26 03:39:28;;;;;;;;;;;24.00;63.40;;;;;;4972004;28;19921;-59
2021/07/26 03:41:58;;;;;;;;;;;23.90;63.30;;;;;;4993723;28;19917;-59
2021/07/26 03:44:23;;;;;;;;;;;23.90;63.30;;;;;;4982412;28;20410;-59
2021/07/26 03:46:48;;;;;;;;;;;23.90;63.40;;;;;;4980942;28;19976;-60
2021/07/26 03:49:14;;;;;;;;;;;23.90;63.40;;;;;;4981906;28;19972;-59
2021/07/26 03:51:39;;;;;;;;;;;23.90;63.40;;;;;;4981835;28;19917;-59
2021/07/26 03:54:05;;;;;;;;;;;23.90;63.40;;;;;;4982455;28;19921;-60
2021/07/26 03:56:30;;;;;;;;;;;23.90;63.40;;;;;;4975912;28;19913;-59
2021/07/26 03:58:56;;;;;;;;;;;23.90;63.40;;;;;;4982433;28;19918;-59
2021/07/26 04:01:21;;;;;;;;;;;23.90;63.30;;;;;;4981664;28;19921;-61
2021/07/26 04:03:47;;;;;;;;;;;23.90;63.30;;;;;;4981452;28;19918;-60
2021/07/26 04:06:15;;;;;;;;;;;23.90;63.30;;;;;;4982123;28;19944;-59
2021/07/26 04:08:42;;;;;;;;;;;23.90;63.30;;;;;;4981510;28;19925;-58
2021/07/26 04:11:56;;;;;;;;;;;23.90;63.30;;;;;;4981908;28;19997;-60
2021/07/26 04:14:04;;;;;;;;;;;23.90;63.30;;;;;;4976075;28;19944;-58
2021/07/26 04:16:29;;;;;;;;;;;23.90;63.30;;;;;;4961571;28;19945;-60
2021/07/26 04:18:56;;;;;;;;;;;23.90;63.30;;;;;;4959870;28;19992;-59
2021/07/26 04:21:31;;;;;;;;;;;23.90;63.30;;;;;;4962208;28;20017;-60
2021/07/26 04:23:57;;;;;;;;;;;23.90;63.40;;;;;;5011237;23;19936;-60
2021/07/26 04:26:23;;;;;;;;;;;23.90;63.30;;;;;;5002805;28;19918;-59
2021/07/26 04:28:48;;;;;;;;;;;23.90;63.40;;;;;;5009099;28;20029;-59
2021/07/26 04:31:13;;;;;;;;;;;23.90;63.50;;;;;;5001686;28;19921;-59
2021/07/26 04:33:39;;;;;;;;;;;23.90;63.50;;;;;;5002171;28;20589;-60
2021/07/26 04:36:04;;;;;;;;;;;23.90;63.50;;;;;;5001328;28;19929;-57
2021/07/26 04:38:30;;;;;;;;;;;23.90;63.60;;;;;;5001207;28;19914;-60
2021/07/26 04:40:56;;;;;;;;;;;23.90;63.70;;;;;;5021446;28;19917;-58
2021/07/26 04:43:21;;;;;;;;;;;23.90;63.80;;;;;;5021455;28;20530;-61
2021/07/26 04:45:46;;;;;;;;;;;23.90;63.80;;;;;;5020971;28;19923;-59
2021/07/26 04:48:12;;;;;;;;;;;23.90;63.90;;;;;;5022189;28;20282;-61
2021/07/26 04:50:37;;;;;;;;;;;23.90;63.90;;;;;;5024975;28;19913;-61
2021/07/26 04:53:03;;;;;;;;;;;23.90;64.00;;;;;;5025056;28;19913;-61
2021/07/26 04:55:28;;;;;;;;;;;23.90;64.00;;;;;;5025375;28;19940;-61
2021/07/26 04:57:54;;;;;;;;;;;23.90;64.10;;;;;;5022305;28;19988;-61
2021/07/26 05:00:19;;;;;;;;;;;23.90;64.10;;;;;;5024395;28;19936;-59
2021/07/26 05:02:45;;;;;;;;;;;23.90;64.20;;;;;;5024565;28;20370;-60
2021/07/26 05:05:10;;;;;;;;;;;23.90;64.20;;;;;;5024664;28;19995;-59
2021/07/26 05:07:36;;;;;;;;;;;23.90;64.20;;;;;;5025035;28;20020;-58
2021/07/26 05:10:02;;;;;;;;;;;23.90;64.30;;;;;;5024039;28;19921;-51
2021/07/26 05:12:27;;;;;;;;;;;23.90;64.40;;;;;;5024079;28;19913;-59
2021/07/26 05:14:53;;;;;;;;;;;23.90;64.50;;;;;;5024299;28;20016;-61
2021/07/26 05:17:26;;;;;;;;;;;23.90;64.40;;;;;;5024823;28;19936;-59
2021/07/26 05:19:52;;;;;;;;;;;23.90;64.50;;;;;;5023602;28;19925;-60
2021/07/26 05:22:17;;;;;;;;;;;23.90;64.50;;;;;;5024043;28;19913;-58
2021/07/26 05:24:43;;;;;;;;;;;23.90;64.60;;;;;;5023828;28;19925;-60
2021/07/26 05:27:08;;;;;;;;;;;23.90;64.60;;;;;;5024412;28;19917;-61
2021/07/26 05:29:34;;;;;;;;;;;23.90;64.60;;;;;;5023606;28;19914;-61
2021/07/26 05:31:59;;;;;;;;;;;23.90;64.70;;;;;;5024969;28;20051;-56
2021/07/26 05:34:25;;;;;;;;;;;23.90;64.80;;;;;;5022863;28;19917;-58
2021/07/26 05:36:51;;;;;;;;;;;23.90;64.80;;;;;;5023999;28;19917;-56
2021/07/26 05:39:16;;;;;;;;;;;23.90;64.70;;;;;;5023879;28;19917;-58
2021/07/26 05:41:42;;;;;;;;;;;23.90;64.80;;;;;;5023500;28;19971;-59
2021/07/26 05:44:07;;;;;;;;;;;23.90;64.80;;;;;;5023235;28;19917;-58
2021/07/26 05:46:33;;;;;;;;;;;23.90;64.80;;;;;;5023645;28;20366;-56
2021/07/26 05:48:58;;;;;;;;;;;23.90;64.90;;;;;;5024319;28;20220;-59
2021/07/26 05:51:24;;;;;;;;;;;23.90;64.90;;;;;;5022856;28;19919;-56
2021/07/26 05:53:49;;;;;;;;;;;23.90;64.90;;;;;;5023550;28;19917;-61
2021/07/26 05:56:14;;;;;;;;;;;23.90;64.90;;;;;;5024855;28;20597;-61
2021/07/26 05:58:48;;;;;;;;;;;23.90;64.90;;;;;;5023800;28;19913;-60
2021/07/26 06:01:36;;;;;;;;;;;23.90;64.90;;;;;;5023542;28;19923;-60
2021/07/26 06:04:01;;;;;;;;;;;23.90;64.90;;;;;;5020673;28;20004;-57
2021/07/26 06:06:27;;;;;;;;;;;24.00;65.00;;;;;;5023783;28;20031;-59
2021/07/26 06:08:52;;;;;;;;;;;23.90;65.00;;;;;;5023196;28;19944;-60
2021/07/26 06:11:17;;;;;;;;;;;23.90;65.00;;;;;;5022887;28;20312;-59
2021/07/26 06:13:43;;;;;;;;;;;24.00;65.00;;;;;;5024262;28;19917;-59
2021/07/26 06:16:08;;;;;;;;;;;24.00;65.00;;;;;;5023276;28;19914;-60
2021/07/26 06:18:34;;;;;;;;;;;23.90;65.00;;;;;;5023346;28;19917;-59
2021/07/26 06:21:04;;;;;;;;;;;23.90;65.00;;;;;;5024819;28;19928;-59
2021/07/26 06:23:29;;;;;;;;;;;23.90;65.00;;;;;;5022761;28;19933;-58
2021/07/26 06:25:54;;;;;;;;;;;23.90;64.90;;;;;;5023020;28;20558;-59
2021/07/26 06:28:20;;;;;;;;;;;24.00;65.00;;;;;;5023556;28;19913;-57
2021/07/26 06:30:45;;;;;;;;;;;23.90;65.00;;;;;;5022422;28;19921;-60
2021/07/26 06:33:11;;;;;;;;;;;24.00;65.00;;;;;;5021960;28;19920;-57
2021/07/26 06:35:36;;;;;;;;;;;24.00;65.10;;;;;;5023654;28;20584;-58
2021/07/26 06:38:02;;;;;;;;;;;24.00;65.30;;;;;;5023115;28;19917;-60
2021/07/26 06:40:30;;;;;;;;;;;24.00;65.20;;;;;;5021445;28;19921;-59
2021/07/26 06:42:55;;;;;;;;;;;23.90;65.20;;;;;;5021990;28;19982;-60
2021/07/26 06:45:21;;;;;;;;;;;24.00;65.20;;;;;;5020480;28;19916;-60
2021/07/26 06:47:49;;;;;;;;;;;24.10;65.30;;;;;;5022521;28;19920;-60
2021/07/26 06:50:14;;;;;;;;;;;24.00;65.20;;;;;;5022828;28;19924;-58
2021/07/26 06:52:40;;;;;;;;;;;24.10;65.30;;;;;;5023380;28;20301;-58
2021/07/26 06:55:06;;;;;;;;;;;24.10;65.20;;;;;;5022861;28;20011;-60
2021/07/26 06:57:31;;;;;;;;;;;24.10;65.30;;;;;;5022654;28;19914;-60
2021/07/26 06:59:56;;;;;;;;;;;24.10;65.40;;;;;;5004585;28;20410;-61
2021/07/26 07:02:22;;;;;;;;;;;24.10;65.50;;;;;;5022779;28;20354;-60
2021/07/26 07:04:47;;;;;;;;;;;24.00;65.40;;;;;;5021027;28;19917;-60
2021/07/26 07:07:13;;;;;;;;;;;24.10;65.40;;;;;;5022662;28;20289;-58
2021/07/26 07:09:38;;;;;;;;;;;24.10;65.20;;;;;;5022499;28;19924;-60
2021/07/26 07:12:04;;;;;;;;;;;24.10;65.20;;;;;;5022002;28;19917;-58
2021/07/26 07:14:29;;;;;;;;;;;24.10;65.20;;;;;;5022709;28;20309;-59
2021/07/26 07:16:55;;;;;;;;;;;24.10;65.10;;;;;;5022855;28;19919;-60
2021/07/26 07:19:20;;;;;;;;;;;24.10;65.20;;;;;;5020510;28;20297;-58
2021/07/26 07:21:46;;;;;;;;;;;24.10;65.30;;;;;;5022985;28;19998;-58
2021/07/26 07:24:11;;;;;;;;;;;24.10;65.40;;;;;;5022087;28;20331;-58
2021/07/26 07:26:37;;;;;;;;;;;24.10;65.30;;;;;;5022446;28;19913;-59
2021/07/26 07:29:02;;;;;;;;;;;24.10;65.40;;;;;;5022809;28;20019;-60
2021/07/26 07:31:28;;;;;;;;;;;24.10;65.50;;;;;;5021922;28;20437;-60
2021/07/26 07:33:54;;;;;;;;;;;24.10;64.90;;;;;;5022166;28;19972;-60
2021/07/26 07:36:20;;;;;;;;;;;24.10;64.70;;;;;;5022583;28;20291;-61
2021/07/26 07:38:45;;;;;;;;;;;24.10;64.70;;;;;;5021743;28;19921;-61
2021/07/26 07:41:11;;;;;;;;;;;24.10;65.00;;;;;;5020564;28;20366;-60
2021/07/26 07:43:36;;;;;;;;;;;24.10;64.40;;;;;;5021139;28;19992;-61
2021/07/26 07:46:03;;;;;;;;;;;24.10;64.30;;;;;;5022902;28;19917;-58
2021/07/26 07:48:29;;;;;;;;;;;24.10;64.30;;;;;;5002225;28;19980;-61
2021/07/26 07:50:55;;;;;;;;;;;24.10;64.60;;;;;;5001601;28;20009;-60
2021/07/26 07:53:20;;;;;;;;;;;24.10;64.50;;;;;;5003300;28;20001;-60
2021/07/26 07:55:46;;;;;;;;;;;24.10;64.70;;;;;;5001555;28;19917;-59
2021/07/26 07:58:11;;;;;;;;;;;24.10;64.60;;;;;;5000548;28;19917;-59
2021/07/26 08:00:37;;;;;;;;;;;24.10;64.50;;;;;;5002702;28;19918;-60
2021/07/26 08:03:03;;;;;;;;;;;24.10;64.50;;;;;;5003494;28;19963;-60
2021/07/26 08:05:29;;;;;;;;;;;24.10;64.40;;;;;;5002814;28;19967;-58
2021/07/26 08:07:54;;;;;;;;;;;24.10;64.40;;;;;;5000700;28;19925;-59
2021/07/26 08:10:19;;;;;;;;;;;24.10;64.30;;;;;;5002571;28;19914;-60
2021/07/26 08:12:46;;;;;;;;;;;24.10;64.20;;;;;;5002917;28;19929;-59
2021/07/26 08:15:11;;;;;;;;;;;24.10;64.10;;;;;;5002517;28;19933;-57
2021/07/26 08:17:43;;;;;;;;;;;24.10;64.10;;;;;;5002186;28;20002;-57
2021/07/26 08:20:09;;;;;;;;;;;24.10;64.10;;;;;;5022262;28;19932;-59
2021/07/26 08:22:35;;;;;;;;;;;24.10;64.00;;;;;;5021776;28;19917;-54
2021/07/26 08:25:00;;;;;;;;;;;24.10;64.10;;;;;;5020817;28;20340;-60
2021/07/26 08:27:26;;;;;;;;;;;24.10;63.90;;;;;;5021532;28;19996;-60
2021/07/26 08:29:51;;;;;;;;;;;24.20;64.00;;;;;;5021932;28;20477;-57
2021/07/26 08:32:16;;;;;;;;;;;24.10;63.90;;;;;;5022508;28;19913;-57
2021/07/26 08:34:42;;;;;;;;;;;24.20;63.90;;;;;;5022213;28;19970;-58
2021/07/26 08:37:08;;;;;;;;;;;24.20;63.90;;;;;;5022658;28;19945;-59
2021/07/26 08:39:36;;;;;;;;;;;24.10;63.80;;;;;;5006056;28;19921;-59
2021/07/26 08:42:01;;;;;;;;;;;24.10;63.80;;;;;;5002732;28;19973;-60
2021/07/26 08:44:27;;;;;;;;;;;24.20;63.80;;;;;;5002586;28;19918;-60
2021/07/26 08:46:53;;;;;;;;;;;24.10;63.70;;;;;;5002514;28;19972;-58
2021/07/26 08:49:19;;;;;;;;;;;24.10;63.70;;;;;;5000446;28;19914;-60
2021/07/26 08:51:44;;;;;;;;;;;24.10;64.00;;;;;;4999984;28;19918;-59
2021/07/26 08:54:10;;;;;;;;;;;24.10;63.90;;;;;;5000771;28;19913;-59
2021/07/26 08:56:35;;;;;;;;;;;24.10;64.00;;;;;;5002819;28;19968;-58
2021/07/26 08:59:01;;;;;;;;;;;24.10;64.10;;;;;;5000702;28;19921;-60
2021/07/26 09:01:26;;;;;;;;;;;24.10;64.10;;;;;;5000846;28;20290;-60
2021/07/26 09:03:52;;;;;;;;;;;24.20;64.00;;;;;;5002391;28;20428;-60
2021/07/26 09:06:17;;;;;;;;;;;24.20;63.90;;;;;;5002207;28;19945;-60
2021/07/26 09:08:43;;;;;;;;;;;24.20;63.90;;;;;;5000105;28;19913;-60
2021/07/26 09:11:09;;;;;;;;;;;24.20;64.50;;;;;;5002599;28;19957;-59
2021/07/26 09:13:39;;;;;;;;;;;24.20;63.90;;;;;;5002328;28;19974;-61
2021/07/26 09:16:14;;;;;;;;;;;24.20;63.80;;;;;;5002472;28;19917;-59
2021/07/26 09:18:39;;;;;;;;;;;24.20;63.70;;;;;;5001515;28;19917;-60
2021/07/26 09:21:04;;;;;;;;;;;24.20;63.70;;;;;;5002571;28;19932;-59
2021/07/26 09:23:31;;;;;;;;;;;24.20;63.70;;;;;;5001941;28;19922;-59
2021/07/26 09:25:57;;;;;;;;;;;24.20;63.70;;;;;;5002133;28;19918;-59
2021/07/26 09:28:24;;;;;;;;;;;24.20;63.70;;;;;;5000441;28;20326;-59
2021/07/26 09:30:49;;;;;;;;;;;24.20;63.60;;;;;;5002445;28;19961;-59
2021/07/26 09:33:19;;;;;;;;;;;24.20;63.60;;;;;;5002168;28;19917;-58
2021/07/26 09:35:44;;;;;;;;;;;24.20;63.60;;;;;;5003657;28;20011;-60
2021/07/26 09:38:10;;;;;;;;;;;24.20;63.60;;;;;;5004621;28;20008;-58
2021/07/26 09:40:35;;;;;;;;;;;24.20;63.60;;;;;;5004173;28;19924;-60
2021/07/26 09:43:13;;;;;;;;;;;24.20;63.60;;;;;;5005507;28;19917;-59
2021/07/26 09:45:38;;;;;;;;;;;24.20;63.60;;;;;;5005530;28;19940;-60
2021/07/26 09:48:09;;;;;;;;;;;24.20;63.70;;;;;;5002843;28;20382;-60
2021/07/26 09:50:35;;;;;;;;;;;24.20;63.70;;;;;;5005079;28;20428;-61
2021/07/26 09:53:05;;;;;;;;;;;24.20;63.60;;;;;;5004987;28;19947;-59
2021/07/26 09:55:30;;;;;;;;;;;24.20;63.70;;;;;;5004965;28;20180;-60
2021/07/26 09:58:02;;;;;;;;;;;24.20;63.80;;;;;;5004442;28;20282;-59
2021/07/26 10:00:28;;;;;;;;;;;24.20;63.70;;;;;;5019814;28;19918;-61
2021/07/26 10:02:54;;;;;;;;;;;24.20;63.70;;;;;;5004968;28;19932;-58
2021/07/26 10:05:19;;;;;;;;;;;24.20;63.80;;;;;;5004988;28;20378;-60
2021/07/26 10:07:44;;;;;;;;;;;24.20;63.70;;;;;;5004442;28;19925;-60
2021/07/26 10:10:12;;;;;;;;;;;24.20;63.60;;;;;;5000228;28;19968;-59
2021/07/26 10:12:38;;;;;;;;;;;24.20;63.60;;;;;;4990987;28;19917;-61
2021/07/26 10:15:03;;;;;;;;;;;24.20;63.60;;;;;;5018071;28;20005;-60
2021/07/26 10:17:29;;;;;;;;;;;24.20;63.60;;;;;;4991851;28;20149;-57
2021/07/26 10:19:54;;;;;;;;;;;24.20;63.60;;;;;;4988294;28;19944;-59
2021/07/26 10:22:21;;;;;;;;;;;24.20;63.60;;;;;;4990609;28;20482;-58
2021/07/26 10:24:48;;;;;;;;;;;24.20;63.50;;;;;;5002615;22;19925;-61
2021/07/26 10:27:16;;;;;;;;;;;24.20;63.50;;;;;;5017401;28;20451;-58
2021/07/26 10:29:48;;;;;;;;;;;24.30;63.60;;;;;;5018284;28;19913;-62
2021/07/26 10:32:29;;;;;;;;;;;24.20;63.50;;;;;;5019862;28;19917;-61
2021/07/26 10:34:54;;;;;;;;;;;24.30;63.60;;;;;;5019579;28;19917;-61
2021/07/26 10:37:38;;;;;;;;;;;24.20;63.50;;;;;;5017502;28;19924;-60
2021/07/26 10:40:19;;;;;;;;;;;24.20;63.50;;;;;;5019751;28;20353;-60
2021/07/26 10:42:45;;;;;;;;;;;24.20;63.40;;;;;;5020987;28;19918;-60
2021/07/26 10:45:10;;;;;;;;;;;24.20;63.40;;;;;;5020878;28;19975;-59
2021/07/26 10:47:36;;;;;;;;;;;24.20;63.40;;;;;;5020590;28;19917;-58
2021/07/26 10:50:08;;;;;;;;;;;24.20;63.40;;;;;;5021093;28;20084;-60
2021/07/26 10:52:36;;;;;;;;;;;24.20;63.40;;;;;;5021192;28;19924;-61
2021/07/26 10:55:03;;;;;;;;;;;24.30;63.50;;;;;;5022145;28;20574;-59
2021/07/26 10:57:38;;;;;;;;;;;24.30;63.40;;;;;;5021757;28;19917;-60
2021/07/26 11:00:07;;;;;;;;;;;24.30;63.40;;;;;;5020598;28;20580;-60
2021/07/26 11:02:34;;;;;;;;;;;24.30;63.40;;;;;;5022142;28;19913;-61
2021/07/26 11:04:59;;;;;;;;;;;24.20;63.40;;;;;;5021275;28;19917;-60
2021/07/26 11:07:26;;;;;;;;;;;24.30;63.40;;;;;;5022006;28;19916;-61
2021/07/26 11:09:52;;;;;;;;;;;24.30;63.30;;;;;;5021752;28;19914;-60
2021/07/26 11:12:37;;;;;;;;;;;24.30;63.30;;;;;;5023638;28;19920;-61
2021/07/26 11:15:17;;;;;;;;;;;24.30;63.30;;;;;;5007197;28;20389;-61
2021/07/26 11:18:01;;;;;;;;;;;24.30;63.30;;;;;;5014486;28;19936;-61
2021/07/26 11:20:46;;;;;;;;;;;24.30;63.30;;;;;;5021967;28;19917;-60
2021/07/26 11:23:11;;;;;;;;;;;24.30;63.20;;;;;;5021846;28;19913;-59
2021/07/26 11:25:36;;;;;;;;;;;24.30;63.20;;;;;;5021525;28;19921;-61
2021/07/26 11:28:02;;;;;;;;;;;24.30;63.20;;;;;;5020701;28;19971;-61
2021/07/26 11:30:27;;;;;;;;;;;24.30;63.20;;;;;;5022729;28;20338;-61
2021/07/26 11:32:53;;;;;;;;;;;24.40;63.20;;;;;;5022431;28;20356;-61
2021/07/26 11:35:19;;;;;;;;;;;24.30;63.20;;;;;;5022208;28;19971;-61
2021/07/26 11:37:44;;;;;;;;;;;24.30;63.10;;;;;;5021875;28;19917;-60
2021/07/26 11:40:10;;;;;;;;;;;24.30;63.10;;;;;;5022678;28;19917;-59
2021/07/26 11:42:36;;;;;;;;;;;24.30;63.20;;;;;;5021494;28;20080;-63
2021/07/26 11:45:02;;;;;;;;;;;24.30;63.10;;;;;;5022154;28;19913;-60
2021/07/26 11:47:34;;;;;;;;;;;24.30;63.00;;;;;;5022133;28;19921;-60
2021/07/26 11:50:04;;;;;;;;;;;24.40;63.10;;;;;;5019601;28;20333;-59
2021/07/26 11:52:30;;;;;;;;;;;24.40;63.10;;;;;;5022163;28;20600;-59
2021/07/26 11:54:55;;;;;;;;;;;24.40;63.10;;;;;;5020171;28;19917;-61
2021/07/26 11:57:21;;;;;;;;;;;24.40;63.10;;;;;;5020724;28;19921;-60
2021/07/26 11:59:47;;;;;;;;;;;24.40;63.10;;;;;;5020874;28;19924;-59
2021/07/26 12:02:12;;;;;;;;;;;24.40;63.10;;;;;;5020331;28;19913;-60
2021/07/26 12:04:38;;;;;;;;;;;24.40;63.10;;;;;;5021428;28;20381;-60
2021/07/26 12:07:04;;;;;;;;;;;24.40;63.00;;;;;;5020221;28;19953;-60
2021/07/26 12:09:29;;;;;;;;;;;24.40;63.10;;;;;;5021038;28;19917;-63
2021/07/26 12:11:55;;;;;;;;;;;24.40;63.10;;;;;;5022240;28;19963;-59
2021/07/26 12:14:24;;;;;;;;;;;24.40;63.10;;;;;;5022107;28;20598;-59
2021/07/26 12:17:03;;;;;;;;;;;24.40;62.70;;;;;;5022586;28;20755;-61
2021/07/26 12:19:28;;;;;;;;;;;24.40;62.80;;;;;;5019077;28;20021;-59
2021/07/26 12:21:55;;;;;;;;;;;24.40;62.90;;;;;;5019086;28;19999;-60
2021/07/26 12:24:39;;;;;;;;;;;24.40;62.90;;;;;;5022596;28;19917;-61
2021/07/26 12:27:05;;;;;;;;;;;24.40;63.00;;;;;;5021939;28;19925;-60
2021/07/26 12:29:30;;;;;;;;;;;24.40;62.90;;;;;;5021232;28;20006;-60
2021/07/26 12:32:03;;;;;;;;;;;24.40;62.90;;;;;;5021188;28;19917;-61
2021/07/26 12:34:28;;;;;;;;;;;24.40;62.90;;;;;;5019824;28;20384;-59
2021/07/26 12:36:57;;;;;;;;;;;24.40;62.90;;;;;;5021681;28;19913;-61
2021/07/26 12:39:35;;;;;;;;;;;24.40;62.40;;;;;;5020209;28;19924;-60
2021/07/26 12:42:02;;;;;;;;;;;24.40;62.60;;;;;;5021238;28;20009;-61
2021/07/26 12:44:27;;;;;;;;;;;24.40;62.60;;;;;;5017727;28;19917;-61
2021/07/26 12:46:53;;;;;;;;;;;24.50;62.60;;;;;;5020778;28;19919;-60
2021/07/26 12:49:19;;;;;;;;;;;24.40;62.60;;;;;;5019821;28;19952;-60
2021/07/26 12:51:45;;;;;;;;;;;24.40;62.60;;;;;;5020756;28;20297;-59
2021/07/26 12:54:10;;;;;;;;;;;24.40;62.60;;;;;;5019410;28;19924;-59
2021/07/26 12:56:36;;;;;;;;;;;24.40;62.80;;;;;;5009743;28;19967;-60
2021/07/26 12:59:01;;;;;;;;;;;24.40;62.80;;;;;;5020326;28;19917;-60
2021/07/26 13:01:27;;;;;;;;;;;24.50;62.90;;;;;;5021517;28;20003;-61
2021/07/26 13:03:54;;;;;;;;;;;24.40;62.80;;;;;;5019544;28;20405;-59
2021/07/26 13:06:19;;;;;;;;;;;24.40;62.80;;;;;;5002528;28;19924;-61
2021/07/26 13:08:45;;;;;;;;;;;24.40;62.80;;;;;;5002113;28;19914;-55
2021/07/26 13:11:10;;;;;;;;;;;24.40;62.80;;;;;;5006167;28;19922;-59
2021/07/26 13:13:38;;;;;;;;;;;24.50;62.80;;;;;;5005236;28;20212;-60
2021/07/26 13:16:03;;;;;;;;;;;24.50;62.80;;;;;;5005966;28;20371;-60
2021/07/26 13:18:29;;;;;;;;;;;24.50;62.80;;;;;;5005509;28;19921;-59
2021/07/26 13:20:54;;;;;;;;;;;24.50;62.60;;;;;;5005929;28;19917;-60
2021/07/26 13:23:19;;;;;;;;;;;24.50;62.50;;;;;;5006045;28;19914;-60
2021/07/26 13:25:45;;;;;;;;;;;24.40;62.90;;;;;;5005359;28;19937;-58
2021/07/26 13:28:11;;;;;;;;;;;24.40;63.10;;;;;;5005669;28;19917;-59
2021/07/26 13:30:37;;;;;;;;;;;24.40;63.40;;;;;;5005624;28;19924;-61
2021/07/26 13:33:02;;;;;;;;;;;24.40;63.50;;;;;;5005004;28;19913;-59
2021/07/26 13:35:28;;;;;;;;;;;24.40;63.70;;;;;;5005381;28;20355;-61
2021/07/26 13:37:53;;;;;;;;;;;24.40;63.80;;;;;;5003422;28;20007;-60
2021/07/26 13:40:18;;;;;;;;;;;24.40;64.00;;;;;;5005407;28;19918;-59
2021/07/26 13:42:45;;;;;;;;;;;24.40;64.30;;;;;;5005388;28;20357;-60
2021/07/26 13:45:11;;;;;;;;;;;24.40;64.30;;;;;;5005311;28;19928;-60
2021/07/26 13:47:36;;;;;;;;;;;24.40;64.40;;;;;;5003344;28;19917;-59
2021/07/26 13:50:02;;;;;;;;;;;24.40;64.70;;;;;;5004865;28;20279;-59
2021/07/26 13:52:30;;;;;;;;;;;24.40;64.80;;;;;;5005065;28;19921;-60
2021/07/26 13:54:56;;;;;;;;;;;24.40;65.00;;;;;;5003842;28;20011;-59
2021/07/26 13:57:21;;;;;;;;;;;24.40;65.30;;;;;;5005127;28;19988;-59
2021/07/26 13:59:47;;;;;;;;;;;24.40;65.40;;;;;;5004456;28;20390;-58
2021/07/26 14:02:13;;;;;;;;;;;24.40;65.40;;;;;;5005125;28;19917;-59
2021/07/26 14:04:38;;;;;;;;;;;24.40;65.50;;;;;;5003350;28;20041;-60
2021/07/26 14:07:04;;;;;;;;;;;24.40;65.80;;;;;;5004651;28;19975;-59
2021/07/26 14:09:29;;;;;;;;;;;24.40;65.90;;;;;;5004187;28;19964;-58
2021/07/26 14:11:57;;;;;;;;;;;24.40;65.90;;;;;;5003182;28;19918;-58
2021/07/26 14:14:23;;;;;;;;;;;24.40;65.90;;;;;;5004590;28;19914;-59